createdAt,value
2022-10-01T00:00:36.023Z,65.22
2022-10-01T00:06:22.486Z,65.60
2022-10-01T00:11:53.829Z,65.32
2022-10-01T00:17:25.019Z,65.06
2022-10-01T00:22:56.393Z,65.14
2022-10-01T00:28:27.839Z,65.39
2022-10-01T00:34:05.450Z,64.96
2022-10-01T00:39:37.272Z,65.19
2022-10-01T00:45:11.783Z,65.22
2022-10-01T00:50:43.564Z,64.66
2022-10-01T00:56:14.718Z,65.51
2022-10-01T01:01:45.933Z,65.06
2022-10-01T01:07:17.592Z,64.91
2022-10-01T01:13:05.060Z,65.24
2022-10-01T01:18:48.708Z,65.10
2022-10-01T01:24:25.892Z,64.68
2022-10-01T01:30:09.310Z,65.64
2022-10-01T01:36:07.407Z,65.34
2022-10-01T01:41:42.131Z,65.36
2022-10-01T01:47:14.089Z,65.59
2022-10-01T01:52:46.393Z,65.31
2022-10-01T01:58:18.984Z,65.43
2022-10-01T02:03:50.029Z,65.14
2022-10-01T02:09:29.347Z,65.36
2022-10-01T02:15:24.888Z,65.51
2022-10-01T02:20:59.339Z,65.02
2022-10-01T02:26:31.892Z,65.12
2022-10-01T02:32:02.972Z,65.46
2022-10-01T02:37:35.455Z,65.66
2022-10-01T02:43:31.601Z,65.47
2022-10-01T02:49:04.610Z,65.72
2022-10-01T02:54:39.152Z,65.85
2022-10-01T03:00:13.276Z,65.69
2022-10-01T03:05:44.238Z,65.69
2022-10-01T03:11:16.431Z,65.61
2022-10-01T03:16:47.702Z,65.65
2022-10-01T03:22:23.028Z,65.90
2022-10-01T03:27:54.413Z,65.83
2022-10-01T03:33:25.647Z,66.27
2022-10-01T03:38:56.910Z,66.71
2022-10-01T03:44:28.785Z,66.29
2022-10-01T03:50:00.163Z,66.27
2022-10-01T03:55:31.431Z,66.52
2022-10-01T04:01:03.082Z,66.34
2022-10-01T04:06:34.317Z,66.03
2022-10-01T04:12:05.220Z,66.24
2022-10-01T04:17:37.096Z,66.55
2022-10-01T04:23:08.359Z,66.56
2022-10-01T04:28:39.634Z,66.76
2022-10-01T04:34:10.772Z,66.30
2022-10-01T04:39:41.776Z,66.66
2022-10-01T04:45:13.848Z,66.28
2022-10-01T04:50:45.151Z,66.35
2022-10-01T04:56:16.309Z,66.17
2022-10-01T05:01:47.225Z,66.31
2022-10-01T05:07:19.604Z,66.20
2022-10-01T05:12:52.000Z,66.18
2022-10-01T05:18:23.300Z,66.43
2022-10-01T05:23:54.430Z,66.60
2022-10-01T05:29:25.867Z,66.54
2022-10-01T05:34:57.011Z,66.18
2022-10-01T05:40:29.101Z,66.98
2022-10-01T05:46:02.179Z,66.89
2022-10-01T05:51:34.549Z,66.39
2022-10-01T05:57:08.117Z,66.43
2022-10-01T06:02:39.499Z,66.56
2022-10-01T06:08:10.865Z,66.93
2022-10-01T06:13:46.731Z,66.87
2022-10-01T06:19:18.094Z,66.96
2022-10-01T06:24:50.003Z,66.89
2022-10-01T06:30:22.769Z,66.43
2022-10-01T06:35:54.140Z,66.56
2022-10-01T06:41:25.132Z,66.23
2022-10-01T06:46:56.919Z,66.37
2022-10-01T06:52:46.216Z,66.32
2022-10-01T06:58:22.367Z,66.48
2022-10-01T07:03:54.728Z,66.21
2022-10-01T07:09:25.684Z,65.86
2022-10-01T07:14:57.083Z,66.23
2022-10-01T07:20:28.238Z,65.69
2022-10-01T07:25:59.573Z,65.49
2022-10-01T07:31:30.520Z,66.18
2022-10-01T07:37:01.812Z,65.55
2022-10-01T07:42:33.073Z,66.10
2022-10-01T07:48:04.718Z,65.50
2022-10-01T07:53:36.120Z,65.99
2022-10-01T07:59:08.129Z,65.83
2022-10-01T08:04:57.771Z,65.52
2022-10-01T08:10:29.724Z,65.52
2022-10-01T08:16:06.436Z,65.29
2022-10-01T08:21:37.900Z,65.44
2022-10-01T08:27:09.262Z,65.47
2022-10-01T08:32:40.612Z,65.13
2022-10-01T08:38:14.491Z,65.21
2022-10-01T08:43:45.471Z,65.18
2022-10-01T08:49:21.116Z,65.65
2022-10-01T08:54:58.423Z,65.11
2022-10-01T09:00:32.119Z,65.41
2022-10-01T09:06:19.527Z,64.91
2022-10-01T09:12:16.790Z,65.37
2022-10-01T09:17:56.820Z,65.40
2022-10-01T09:23:43.265Z,65.39
2022-10-01T09:29:40.104Z,65.62
2022-10-01T09:35:29.360Z,65.31
2022-10-01T09:41:01.055Z,65.68
2022-10-01T09:46:32.125Z,65.63
2022-10-01T09:52:29.049Z,65.66
2022-10-01T09:58:05.366Z,65.87
2022-10-01T10:03:36.374Z,65.46
2022-10-01T10:09:16.307Z,65.82
2022-10-01T10:14:47.417Z,65.93
2022-10-01T10:20:42.868Z,65.92
2022-10-01T10:26:19.771Z,65.26
2022-10-01T10:31:51.955Z,65.90
2022-10-01T10:37:27.650Z,66.01
2022-10-01T10:42:59.719Z,65.70
2022-10-01T10:48:37.435Z,65.82
2022-10-01T10:54:32.169Z,65.34
2022-10-01T11:00:16.630Z,65.43
2022-10-01T11:05:51.926Z,65.41
2022-10-01T11:11:26.599Z,65.42
2022-10-01T11:17:52.280Z,65.01
2022-10-01T11:23:52.540Z,65.17
2022-10-01T11:29:38.287Z,64.96
2022-10-01T11:35:15.456Z,64.70
2022-10-01T11:40:51.276Z,64.34
2022-10-01T11:46:43.779Z,64.82
2022-10-01T11:52:33.328Z,64.82
2022-10-01T11:58:45.394Z,64.42
2022-10-01T12:04:41.668Z,64.20
2022-10-01T12:10:42.151Z,64.23
2022-10-01T12:16:23.354Z,64.48
2022-10-01T12:22:02.332Z,64.37
2022-10-01T12:27:46.565Z,64.54
2022-10-01T12:34:03.760Z,64.58
2022-10-01T12:39:44.705Z,64.21
2022-10-01T12:45:56.563Z,64.29
2022-10-01T12:51:52.652Z,64.75
2022-10-01T12:57:39.066Z,64.64
2022-10-01T13:03:38.964Z,65.05
2022-10-01T13:09:21.364Z,64.67
2022-10-01T13:14:53.755Z,64.81
2022-10-01T13:20:36.176Z,65.14
2022-10-01T13:26:35.348Z,64.85
2022-10-01T13:32:31.437Z,65.15
2022-10-01T13:38:14.633Z,65.12
2022-10-01T13:44:08.488Z,65.86
2022-10-01T13:49:42.781Z,65.63
2022-10-01T13:55:28.775Z,65.93
2022-10-01T14:01:03.117Z,65.87
2022-10-01T14:06:37.328Z,65.98
2022-10-01T14:12:35.089Z,65.91
2022-10-01T14:18:15.710Z,66.34
2022-10-01T14:23:55.955Z,66.42
2022-10-01T14:29:48.416Z,66.06
2022-10-01T14:35:33.095Z,66.21
2022-10-01T14:41:03.971Z,66.73
2022-10-01T14:46:36.037Z,66.15
2022-10-01T14:52:17.739Z,65.98
2022-10-01T14:57:51.289Z,66.21
2022-10-01T15:03:22.213Z,66.25
2022-10-01T15:08:55.289Z,66.50
2022-10-01T15:14:26.571Z,66.17
2022-10-01T15:19:58.780Z,66.94
2022-10-01T15:25:31.791Z,66.66
2022-10-01T15:31:05.757Z,66.45
2022-10-01T15:36:37.568Z,66.58
2022-10-01T15:42:34.054Z,66.72
2022-10-01T15:48:05.358Z,66.72
2022-10-01T15:53:36.483Z,66.98
2022-10-01T15:59:18.159Z,67.11
2022-10-01T16:04:52.930Z,67.00
2022-10-01T16:10:37.709Z,66.44
2022-10-01T16:16:18.742Z,66.77
2022-10-01T16:22:25.351Z,66.82
2022-10-01T16:27:58.769Z,66.89
2022-10-01T16:33:30.009Z,67.02
2022-10-01T16:39:01.158Z,67.03
2022-10-01T16:44:32.532Z,66.68
2022-10-01T16:50:09.723Z,67.03
2022-10-01T16:55:41.189Z,67.44
2022-10-01T17:01:14.805Z,67.09
2022-10-01T17:06:46.318Z,67.45
2022-10-01T17:12:17.068Z,66.81
2022-10-01T17:17:47.964Z,67.24
2022-10-01T17:23:21.916Z,67.57
2022-10-01T17:28:53.041Z,66.98
2022-10-01T17:34:24.267Z,67.12
2022-10-01T17:39:55.478Z,67.16
2022-10-01T17:45:26.457Z,67.04
2022-10-01T17:51:00.373Z,67.85
2022-10-01T17:56:33.068Z,67.81
2022-10-01T18:02:23.504Z,67.83
2022-10-01T18:07:57.078Z,68.21
2022-10-01T18:13:27.888Z,67.93
2022-10-01T18:24:51.830Z,67.67
2022-10-01T18:30:23.260Z,68.30
2022-10-01T18:35:57.331Z,68.49
2022-10-01T18:41:39.085Z,68.08
2022-10-01T18:47:25.878Z,67.75
2022-10-01T18:53:05.762Z,68.32
2022-10-01T18:59:04.339Z,68.40
2022-10-01T19:04:47.770Z,67.99
2022-10-01T19:10:39.724Z,67.72
2022-10-01T19:16:39.345Z,67.69
2022-10-01T19:22:16.854Z,68.02
2022-10-01T19:28:07.075Z,67.83
2022-10-01T19:33:45.298Z,68.22
2022-10-01T19:39:21.952Z,67.91
2022-10-01T19:44:53.979Z,67.86
2022-10-01T19:50:29.793Z,68.00
2022-10-01T19:56:02.486Z,67.88
2022-10-01T20:02:03.696Z,68.69
2022-10-01T20:07:46.700Z,68.61
2022-10-01T20:13:35.069Z,68.85
2022-10-01T20:19:32.403Z,68.70
2022-10-01T20:25:24.295Z,69.01
2022-10-01T20:31:31.236Z,69.46
2022-10-01T20:37:24.230Z,69.85
2022-10-01T20:43:00.534Z,69.82
2022-10-01T20:48:41.122Z,70.13
2022-10-01T20:54:23.198Z,69.80
2022-10-01T20:59:55.715Z,70.14
2022-10-01T21:05:41.864Z,70.58
2022-10-01T21:11:55.454Z,69.95
2022-10-01T21:17:35.531Z,70.54
2022-10-01T21:23:11.866Z,70.71
2022-10-01T21:29:19.517Z,70.11
2022-10-01T21:35:23.671Z,70.11
2022-10-01T21:41:24.306Z,70.42
2022-10-01T21:47:06.573Z,69.99
2022-10-01T21:52:37.647Z,70.60
2022-10-01T21:58:11.588Z,70.39
2022-10-01T22:03:49.663Z,70.35
2022-10-01T22:09:50.322Z,69.72
2022-10-01T22:15:25.162Z,69.94
2022-10-01T22:21:00.029Z,69.90
2022-10-01T22:26:33.186Z,70.11
2022-10-01T22:32:05.115Z,69.97
2022-10-01T22:37:42.472Z,69.95
2022-10-01T22:43:14.112Z,69.79
2022-10-01T22:49:09.741Z,70.24
2022-10-01T22:54:54.711Z,70.20
2022-10-01T23:00:26.493Z,69.82
2022-10-01T23:06:15.608Z,69.67
2022-10-01T23:12:41.623Z,69.91
2022-10-01T23:18:35.376Z,69.86
2022-10-01T23:24:31.923Z,70.63
2022-10-01T23:30:11.933Z,70.25
2022-10-01T23:35:52.683Z,70.17
2022-10-01T23:41:33.537Z,70.58
2022-10-01T23:47:10.147Z,70.68
2022-10-01T23:52:45.988Z,70.23
2022-10-01T23:58:18.147Z,70.42
